Time;durP1;ratioP1;P1;durP2;ratioP2;P2;SDS_P1;SDS_P2;PMS_P1;PMS_P2;Temp;Humidity;BMP_temperature;BMP_pressure;BME280_temperature;BME280_humidity;BME280_pressure;Samples;Min_cycle;Max_cycle;Signal;HPM_P1;HPM_P2
2023/07/13 00:00:04;;;;;;;14.77;3.50;;;;;;;22.17;58.81;101429.44;5028821;28;20037;-49
2023/07/13 00:02:29;;;;;;;17.55;3.30;;;;;;;21.86;59.58;101429.31;5029397;28;20125;-45
2023/07/13 00:04:55;;;;;;;12.48;3.25;;;;;;;22.19;58.64;101428.50;5028878;28;20116;-47
2023/07/13 00:07:20;;;;;;;12.70;3.15;;;;;;;22.35;58.03;101421.00;5029587;28;20488;-45
2023/07/13 00:09:48;;;;;;;10.88;3.10;;;;;;;22.30;58.27;101430.88;5028418;28;20115;-48
2023/07/13 00:12:29;;;;;;;17.23;3.45;;;;;;;22.45;57.89;101430.44;5029086;28;20562;-43
2023/07/13 00:14:59;;;;;;;15.00;3.42;;;;;;;22.53;57.14;101427.59;5029287;28;20033;-45
2023/07/13 00:17:25;;;;;;;11.18;2.80;;;;;;;22.51;57.02;101426.75;5029378;28;20551;-47
2023/07/13 00:19:51;;;;;;;14.85;3.42;;;;;;;22.35;57.84;101428.09;5028067;28;20030;-47
2023/07/13 00:22:17;;;;;;;15.52;3.60;;;;;;;22.35;57.43;101431.63;5029187;28;20044;-43
2023/07/13 00:24:44;;;;;;;15.70;3.15;;;;;;;22.55;56.93;101439.94;5029116;28;20037;-44
2023/07/13 00:27:09;;;;;;;16.42;3.50;;;;;;;22.34;57.62;101437.84;5029877;28;20037;-47
2023/07/13 00:29:36;;;;;;;17.35;3.92;;;;;;;22.33;57.58;101441.41;5027871;28;20041;-48
2023/07/13 00:32:03;;;;;;;10.35;3.10;;;;;;;22.53;57.10;101443.53;5032114;28;20029;-45
2023/07/13 00:34:29;;;;;;;16.38;3.33;;;;;;;22.46;57.20;101441.97;5032669;28;20038;-46
2023/07/13 00:36:54;;;;;;;11.18;3.03;;;;;;;22.36;57.77;101440.47;5032443;28;20120;-43
2023/07/13 00:39:20;;;;;;;13.63;3.25;;;;;;;22.42;57.17;101446.50;5032209;28;20407;-45
2023/07/13 00:41:46;;;;;;;16.40;3.58;;;;;;;22.00;59.01;101448.47;5032294;28;20044;-43
2023/07/13 00:44:16;;;;;;;11.88;2.97;;;;;;;22.39;57.48;101443.91;5032541;28;20041;-48
2023/07/13 00:46:41;;;;;;;13.68;3.28;;;;;;;22.49;56.97;101441.88;5032019;28;20029;-46
2023/07/13 00:49:10;;;;;;;13.35;3.17;;;;;;;22.53;56.63;101438.22;5031717;28;20376;-44
2023/07/13 00:51:48;;;;;;;14.02;3.10;;;;;;;22.37;56.85;101436.91;5032038;28;20041;-49
2023/07/13 00:54:19;;;;;;;15.75;3.03;;;;;;;22.31;56.98;101437.06;5032213;28;20037;-47
2023/07/13 00:56:46;;;;;;;12.75;2.85;;;;;;;22.27;56.00;101446.88;5031853;28;20111;-49
2023/07/13 00:59:15;;;;;;;11.40;2.88;;;;;;;22.14;56.53;101438.34;5031951;28;20042;-49
2023/07/13 01:01:40;;;;;;;13.68;2.90;;;;;;;21.97;57.29;101443.22;5032023;28;20038;-45
2023/07/13 01:04:07;;;;;;;12.18;2.70;;;;;;;21.94;57.24;101448.59;5032007;28;20026;-47
2023/07/13 01:06:39;;;;;;;11.82;2.85;;;;;;;21.80;57.32;101450.69;5032160;28;20266;-44
2023/07/13 01:09:07;;;;;;;12.02;2.63;;;;;;;21.98;56.77;101444.97;5031571;28;20073;-46
2023/07/13 01:11:33;;;;;;;9.40;2.30;;;;;;;22.03;56.14;101450.16;5031411;28;20030;-46
2023/07/13 01:13:58;;;;;;;13.63;2.50;;;;;;;21.86;57.11;101443.44;5032218;28;20037;-44
2023/07/13 01:16:30;;;;;;;9.63;2.50;;;;;;;21.88;56.77;101451.38;5034020;28;20033;-46
2023/07/13 01:18:59;;;;;;;10.52;2.65;;;;;;;21.83;56.75;101443.50;5032705;28;20443;-44
2023/07/13 01:21:26;;;;;;;10.98;2.72;;;;;;;21.83;56.63;101447.97;5032801;28;20056;-46
2023/07/13 01:23:52;;;;;;;8.35;2.20;;;;;;;21.76;56.72;101444.59;5031346;28;20038;-44
2023/07/13 01:26:17;;;;;;;11.15;2.50;;;;;;;21.59;57.51;101457.34;5030811;28;20038;-46
2023/07/13 01:28:43;;;;;;;11.48;2.63;;;;;;;21.42;58.08;101462.16;5031497;28;20088;-44
2023/07/13 01:31:10;;;;;;;10.20;2.35;;;;;;;21.56;57.68;101467.19;5030987;28;20043;-46
2023/07/13 01:33:39;;;;;;;9.63;2.30;;;;;;;21.54;57.41;101464.53;5031796;28;20043;-51
2023/07/13 01:36:06;;;;;;;7.90;2.30;;;;;;;21.24;58.50;101465.22;5032262;28;20581;-46
2023/07/13 01:38:34;;;;;;;9.23;2.08;;;;;;;21.41;57.81;101457.75;5031510;28;20046;-48
2023/07/13 01:41:00;;;;;;;7.72;2.00;;;;;;;21.24;58.15;101455.47;5031045;28;20037;-50
2023/07/13 01:43:25;;;;;;;9.48;2.15;;;;;;;21.35;57.49;101465.84;5031507;28;20049;-44
2023/07/13 01:45:51;;;;;;;7.10;1.75;;;;;;;21.27;57.70;101463.38;5031238;28;20124;-46
2023/07/13 01:48:16;;;;;;;4.28;1.67;;;;;;;21.38;57.47;101464.03;5031275;28;20044;-48
2023/07/13 01:50:41;;;;;;;6.53;1.65;;;;;;;21.34;57.39;101469.44;5029451;28;20029;-46
2023/07/13 01:53:08;;;;;;;6.88;1.60;;;;;;;21.31;57.53;101467.72;5030911;28;20350;-48
2023/07/13 01:55:35;;;;;;;8.95;1.65;;;;;;;21.25;57.75;101470.50;5031221;28;20069;-44
2023/07/13 01:58:00;;;;;;;6.78;1.40;;;;;;;21.27;57.50;101471.34;5031839;28;20033;-50
2023/07/13 02:00:26;;;;;;;7.30;1.50;;;;;;;21.16;58.19;101475.13;5030970;28;20034;-50
2023/07/13 02:02:51;;;;;;;4.78;1.33;;;;;;;21.14;58.13;101467.16;5031259;28;20037;-45
2023/07/13 02:05:17;;;;;;;4.88;1.30;;;;;;;21.19;57.95;101469.75;5031891;28;20030;-43
2023/07/13 02:07:42;;;;;;;4.05;1.50;;;;;;;21.08;58.29;101477.91;5031410;28;20625;-43
2023/07/13 02:10:09;;;;;;;4.43;1.50;;;;;;;21.12;58.33;101476.91;5031097;28;20037;-43
2023/07/13 02:12:35;;;;;;;5.00;1.65;;;;;;;21.01;58.62;101479.78;5030785;28;20052;-45
2023/07/13 02:15:02;;;;;;;5.28;1.63;;;;;;;21.05;58.68;101486.78;5030763;28;20053;-46
2023/07/13 02:17:27;;;;;;;5.60;1.60;;;;;;;20.84;59.69;101476.63;5030505;28;20037;-47
2023/07/13 02:19:53;;;;;;;6.63;1.60;;;;;;;20.93;59.57;101476.41;5030449;28;20476;-42
2023/07/13 02:22:19;;;;;;;8.57;1.63;;;;;;;20.71;60.04;101482.16;5031042;28;20047;-43
2023/07/13 02:24:44;;;;;;;4.50;1.52;;;;;;;20.74;60.03;101476.81;5030305;28;20029;-47
2023/07/13 02:27:10;;;;;;;7.68;1.60;;;;;;;20.86;59.43;101474.78;5030827;28;20038;-47
2023/07/13 02:29:35;;;;;;;5.55;1.40;;;;;;;20.89;59.29;101472.09;5029462;28;20591;-45
2023/07/13 02:32:00;;;;;;;5.75;1.55;;;;;;;20.93;58.90;101475.53;5030486;28;20449;-46
2023/07/13 02:34:26;;;;;;;5.90;1.40;;;;;;;20.82;59.35;101470.47;5030480;28;20047;-50
2023/07/13 02:36:51;;;;;;;4.85;1.40;;;;;;;20.83;59.09;101472.22;5030195;28;20116;-46
2023/07/13 02:39:18;;;;;;;7.43;1.50;;;;;;;20.61;59.97;101471.72;5029834;28;20071;-47
2023/07/13 02:41:43;;;;;;;5.07;1.50;;;;;;;20.75;59.26;101474.13;5030317;28;20040;-46
2023/07/13 02:44:09;;;;;;;8.55;1.65;;;;;;;20.77;59.32;101474.09;5030336;28;20395;-46
2023/07/13 02:46:36;;;;;;;6.10;1.75;;;;;;;20.77;59.47;101474.97;5032098;28;20096;-46
2023/07/13 02:49:03;;;;;;;7.10;1.60;;;;;;;20.57;60.42;101479.75;5032878;28;20025;-44
2023/07/13 02:51:28;;;;;;;6.22;1.65;;;;;;;20.68;60.08;101480.44;5032970;28;20038;-44
2023/07/13 02:53:54;;;;;;;5.90;1.33;;;;;;;20.71;59.68;101485.69;5031043;28;20369;-43
2023/07/13 02:56:25;;;;;;;5.00;1.77;;;;;;;20.72;59.88;101479.50;5032822;28;20044;-45
2023/07/13 02:58:51;;;;;;;5.70;1.92;;;;;;;20.67;60.39;101480.47;5032799;28;20045;-45
2023/07/13 03:01:18;;;;;;;7.63;1.65;;;;;;;20.69;60.38;101479.53;5033854;28;20033;-44
2023/07/13 03:03:45;;;;;;;5.93;1.80;;;;;;;20.69;60.43;101479.53;5029299;28;20500;-42
2023/07/13 03:06:11;;;;;;;6.13;1.90;;;;;;;20.67;60.52;101487.50;5029983;28;20500;-51
2023/07/13 03:08:37;;;;;;;6.80;1.88;;;;;;;20.70;60.53;101493.66;5031189;28;20044;-44
2023/07/13 03:11:08;;;;;;;6.32;1.80;;;;;;;20.64;60.77;101490.22;5031768;28;20030;-45
2023/07/13 03:13:34;;;;;;;8.45;1.83;;;;;;;20.62;61.64;101493.78;5029481;28;20163;-47
2023/07/13 03:16:01;;;;;;;9.15;2.20;;;;;;;20.63;61.45;101496.41;5030294;28;20033;-44
2023/07/13 03:18:27;;;;;;;8.95;2.20;;;;;;;20.58;61.82;101500.06;5030510;28;20040;-50
2023/07/13 03:20:53;;;;;;;4.53;1.83;;;;;;;20.54;62.48;101490.44;5028829;28;20041;-48
2023/07/13 03:23:20;;;;;;;7.20;2.00;;;;;;;20.55;62.45;101489.53;5029462;28;20517;-51
2023/07/13 03:25:46;;;;;;;9.10;1.90;;;;;;;20.61;62.11;101486.78;5029060;28;20042;-47
2023/07/13 03:28:12;;;;;;;7.53;1.83;;;;;;;20.50;62.89;101488.72;5029682;28;20128;-46
2023/07/13 03:30:38;;;;;;;6.95;2.15;;;;;;;20.47;63.59;101488.78;5028561;28;20033;-46
2023/07/13 03:33:03;;;;;;;8.98;2.10;;;;;;;20.51;63.55;101485.16;5029486;28;20036;-45
2023/07/13 03:35:29;;;;;;;8.55;2.03;;;;;;;20.51;64.03;101486.03;5029882;28;20416;-47
2023/07/13 03:37:54;;;;;;;8.95;2.13;;;;;;;20.58;63.62;101489.47;5029501;28;20033;-43
2023/07/13 03:40:20;;;;;;;9.00;2.17;;;;;;;20.56;63.70;101491.25;5028614;28;20033;-48
2023/07/13 03:42:46;;;;;;;8.23;2.22;;;;;;;20.55;64.14;101486.88;5029043;28;20037;-47
2023/07/13 03:45:12;;;;;;;8.98;2.30;;;;;;;20.54;64.58;101488.66;5029550;28;20389;-45
2023/07/13 03:47:37;;;;;;;7.50;1.95;;;;;;;20.63;64.45;101492.91;5030031;28;20033;-43
2023/07/13 03:50:03;;;;;;;11.07;2.38;;;;;;;20.63;64.56;101496.41;5030174;28;20026;-43
2023/07/13 03:52:28;;;;;;;7.97;2.33;;;;;;;20.76;64.43;101496.19;5030446;28;20500;-47
2023/07/13 03:54:54;;;;;;;8.48;2.25;;;;;;;20.80;64.71;101496.09;5029689;28;20415;-48
2023/07/13 03:57:19;;;;;;;8.60;2.20;;;;;;;20.88;64.46;101493.31;5029800;28;20045;-44
2023/07/13 03:59:44;;;;;;;5.95;1.92;;;;;;;20.99;64.36;101488.66;5027141;28;20060;-49
2023/07/13 04:02:10;;;;;;;10.15;2.10;;;;;;;21.02;64.10;101494.81;5029378;28;20116;-50
2023/07/13 04:04:35;;;;;;;7.32;2.10;;;;;;;21.11;64.10;101503.47;5028825;28;20041;-44
2023/07/13 04:07:01;;;;;;;9.73;2.40;;;;;;;21.05;64.68;101507.97;5032904;28;20466;-47
2023/07/13 04:09:26;;;;;;;5.57;2.13;;;;;;;21.18;64.08;101503.34;5033069;28;20076;-46
2023/07/13 04:11:52;;;;;;;8.57;2.40;;;;;;;21.27;64.01;101508.47;5032995;28;20711;-45
2023/07/13 04:14:17;;;;;;;8.25;2.28;;;;;;;21.32;63.91;101505.72;5033566;28;20049;-45
2023/07/13 04:16:43;;;;;;;10.25;2.50;;;;;;;21.35;64.08;101510.94;5033174;28;20045;-47
2023/07/13 04:19:10;;;;;;;7.57;2.35;;;;;;;21.43;63.86;101509.88;5035608;28;20037;-45
2023/07/13 04:21:36;;;;;;;11.13;2.38;;;;;;;21.60;63.65;101513.94;5035290;28;20096;-49
2023/07/13 04:24:03;;;;;;;8.27;1.90;;;;;;;21.65;63.38;101517.41;5035909;28;20029;-45
2023/07/13 04:26:29;;;;;;;7.82;2.30;;;;;;;21.74;62.79;101515.41;5033655;28;20069;-44
2023/07/13 04:28:55;;;;;;;7.93;2.10;;;;;;;21.83;62.66;101517.84;5031737;28;20057;-49
2023/07/13 04:31:21;;;;;;;11.77;2.28;;;;;;;21.79;62.39;101521.47;5033142;28;20034;-43
2023/07/13 04:33:47;;;;;;;8.52;2.38;;;;;;;21.75;62.53;101529.56;5032646;28;20120;-45
2023/07/13 04:36:14;;;;;;;9.15;2.50;;;;;;;21.83;62.63;101522.28;5032760;28;20407;-46
2023/07/13 04:38:41;;;;;;;9.00;2.50;;;;;;;21.95;62.32;101527.34;5031767;28;20450;-50
2023/07/13 04:41:08;;;;;;;8.73;2.30;;;;;;;22.03;62.23;101532.47;5032730;28;20044;-50
2023/07/13 04:43:34;;;;;;;8.60;2.40;;;;;;;22.18;62.04;101526.81;5032231;28;20518;-43
2023/07/13 04:46:12;;;;;;;7.85;2.35;;;;;;;22.26;61.35;101533.66;5032670;28;20033;-43
2023/07/13 04:48:38;;;;;;;7.40;2.20;;;;;;;22.40;61.51;101530.66;5031968;28;20029;-48
2023/07/13 04:51:04;;;;;;;7.55;2.08;;;;;;;22.47;61.04;101531.38;5032532;28;20108;-45
2023/07/13 04:53:30;;;;;;;10.02;2.30;;;;;;;22.54;60.48;101539.19;5032530;28;20037;-46
2023/07/13 04:55:56;;;;;;;8.85;2.33;;;;;;;22.70;60.31;101534.31;5031852;28;20030;-49
2023/07/13 04:58:22;;;;;;;8.48;2.10;;;;;;;22.78;60.05;101534.16;5032323;28;20040;-45
2023/07/13 05:00:48;;;;;;;7.00;2.20;;;;;;;22.94;59.11;101540.81;5031518;28;20033;-49
2023/07/13 05:03:14;;;;;;;8.32;2.15;;;;;;;22.85;58.86;101538.41;5032296;28;20510;-46
2023/07/13 05:05:39;;;;;;;6.93;2.05;;;;;;;23.04;59.15;101544.97;5031555;28;20049;-45
2023/07/13 05:08:04;;;;;;;7.75;2.40;;;;;;;23.02;58.85;101542.34;5032310;28;20029;-46
2023/07/13 05:10:30;;;;;;;44.20;35.15;;;;;;;23.23;58.17;101551.53;5031833;28;20064;-46
2023/07/13 05:12:55;;;;;;;9.43;4.38;;;;;;;23.30;57.50;101549.53;5031548;28;20030;-49
2023/07/13 05:15:22;;;;;;;8.50;2.50;;;;;;;23.08;57.77;101543.09;5032007;28;20034;-46
2023/07/13 05:17:49;;;;;;;9.40;2.30;;;;;;;22.97;57.84;101548.72;5031167;28;20519;-50
2023/07/13 05:20:15;;;;;;;6.00;2.20;;;;;;;23.20;57.62;101556.06;5031378;28;20056;-44
2023/07/13 05:22:41;;;;;;;10.15;2.60;;;;;;;23.10;56.54;101557.25;5031303;28;20124;-43
2023/07/13 05:25:07;;;;;;;5.85;2.08;;;;;;;23.45;55.29;101549.13;5031565;28;20041;-47
2023/07/13 05:27:34;;;;;;;7.68;2.22;;;;;;;23.44;54.71;101552.69;5032532;28;20041;-48
2023/07/13 05:30:00;;;;;;;8.60;2.25;;;;;;;23.11;55.50;101551.88;5031122;28;20500;-43
2023/07/13 05:32:25;;;;;;;8.00;2.45;;;;;;;22.86;55.89;101557.00;5032006;28;20044;-45
2023/07/13 05:34:51;;;;;;;6.50;2.30;;;;;;;23.03;55.42;101556.53;5031311;28;20544;-46
2023/07/13 05:37:16;;;;;;;8.48;2.40;;;;;;;22.92;56.14;101563.94;5032421;28;20040;-43
2023/07/13 05:39:42;;;;;;;8.02;2.50;;;;;;;23.11;56.21;101556.31;5031417;28;20056;-43
2023/07/13 05:42:07;;;;;;;8.90;2.55;;;;;;;23.79;51.86;101559.66;5032061;28;20033;-49
2023/07/13 05:44:33;;;;;;;10.70;2.60;;;;;;;24.15;51.22;101565.66;5031481;28;20069;-45
2023/07/13 05:46:58;;;;;;;8.35;2.50;;;;;;;24.59;50.61;101569.56;5030854;28;20041;-46
2023/07/13 05:49:23;;;;;;;7.55;2.40;;;;;;;24.23;50.98;101571.63;5030741;28;20530;-51
2023/07/13 05:51:49;;;;;;;7.65;2.50;;;;;;;24.53;50.63;101583.09;5030644;28;20072;-45
2023/07/13 05:54:14;;;;;;;7.28;2.42;;;;;;;24.12;50.88;101571.94;5031164;28;20042;-46
2023/07/13 05:56:40;;;;;;;8.30;2.53;;;;;;;23.31;52.94;101573.47;5030893;28;20041;-49
2023/07/13 05:59:05;;;;;;;9.88;2.55;;;;;;;22.91;53.55;101583.44;5029193;28;20041;-49
2023/07/13 06:01:31;;;;;;;6.72;2.50;;;;;;;23.34;52.43;101585.81;5030762;28;20495;-46
2023/07/13 06:03:57;;;;;;;7.63;2.40;;;;;;;23.35;53.01;101579.59;5030529;28;20030;-48
2023/07/13 06:06:22;;;;;;;5.85;2.40;;;;;;;23.18;53.26;101584.47;5030948;28;20045;-51
2023/07/13 06:08:48;;;;;;;9.10;2.70;;;;;;;23.25;52.88;101589.59;5029753;28;20045;-46
2023/07/13 06:11:17;;;;;;;7.13;2.50;;;;;;;23.73;51.48;101590.00;5030505;28;20507;-47
2023/07/13 06:13:43;;;;;;;10.63;2.72;;;;;;;23.66;51.80;101596.47;5030373;28;20040;-52
2023/07/13 06:16:09;;;;;;;10.25;2.50;;;;;;;23.52;51.94;101590.66;5031146;28;20029;-43
2023/07/13 06:18:36;;;;;;;7.82;2.50;;;;;;;23.48;52.26;101597.00;5030338;28;20037;-47
2023/07/13 06:21:09;;;;;;;7.97;2.55;;;;;;;23.65;51.78;101604.47;5030893;28;20087;-50
2023/07/13 06:23:35;;;;;;;;;;;;;;;24.04;51.57;101592.63;5030330;28;20037;-48
2023/07/13 06:26:01;;;;;;;7.47;2.45;;;;;;;24.78;49.37;101594.69;5030634;28;20391;-46
2023/07/13 06:28:26;;;;;;;12.15;2.65;;;;;;;25.32;47.12;101599.03;5029847;28;20094;-47
2023/07/13 06:30:51;;;;;;;8.65;2.40;;;;;;;26.51;43.38;101598.00;5029459;28;20526;-44
2023/07/13 06:33:17;;;;;;;8.48;2.50;;;;;;;25.89;45.42;101595.16;5027829;28;20026;-47
2023/07/13 06:35:42;;;;;;;9.10;2.45;;;;;;;26.27;44.47;101599.88;5028545;28;20071;-44
2023/07/13 06:38:08;;;;;;;10.45;2.40;;;;;;;26.77;42.81;101595.13;5030082;28;20121;-53
2023/07/13 06:40:33;;;;;;;6.75;2.50;;;;;;;25.61;45.93;101604.22;5027467;28;20044;-52
2023/07/13 06:42:59;;;;;;;6.68;2.33;;;;;;;26.19;44.03;101607.31;5029451;28;20088;-46
2023/07/13 06:45:24;;;;;;;8.35;2.30;;;;;;;25.96;44.21;101605.53;5030091;28;20504;-49
2023/07/13 06:47:49;;;;;;;12.90;2.65;;;;;;;25.77;44.51;101605.38;5028875;28;20041;-50
2023/07/13 06:50:15;;;;;;;8.35;2.30;;;;;;;25.83;44.86;101609.59;5029617;28;20034;-47
2023/07/13 06:52:40;;;;;;;6.90;2.25;;;;;;;25.48;45.32;101610.03;5030444;28;20391;-48
2023/07/13 06:55:06;;;;;;;13.27;2.85;;;;;;;24.82;46.87;101620.34;5031904;28;20079;-46
2023/07/13 06:57:32;;;;;;;7.38;2.72;;;;;;;24.53;48.24;101626.63;5030764;28;20041;-45
2023/07/13 06:59:57;;;;;;;9.38;2.60;;;;;;;23.64;50.29;101624.91;5028949;28;20037;-44
2023/07/13 07:02:23;;;;;;;11.48;2.85;;;;;;;23.44;51.42;101625.44;5030976;28;20037;-46
2023/07/13 07:04:48;;;;;;;6.05;2.50;;;;;;;23.66;50.74;101628.41;5031460;28;20041;-45
2023/07/13 07:07:13;;;;;;;6.90;2.70;;;;;;;23.91;50.46;101636.50;5031337;28;20037;-49
2023/07/13 07:09:39;;;;;;;8.50;2.80;;;;;;;24.40;49.37;101633.25;5029221;28;20407;-48
2023/07/13 07:12:05;;;;;;;5.85;2.60;;;;;;;24.65;47.97;101625.34;5029485;28;20408;-45
2023/07/13 07:14:31;;;;;;;7.43;2.63;;;;;;;25.47;45.47;101617.16;5029543;28;20037;-51
2023/07/13 07:16:58;;;;;;;7.88;2.50;;;;;;;25.55;45.60;101622.22;5029653;28;20032;-45
2023/07/13 07:19:24;;;;;;;7.45;2.63;;;;;;;25.73;45.17;101626.94;5029087;28;20044;-45
2023/07/13 07:21:49;;;;;;;6.53;2.63;;;;;;;24.90;47.29;101628.97;5029298;28;20595;-44
2023/07/13 07:24:15;;;;;;;9.52;2.60;;;;;;;23.94;50.41;101632.91;5029561;28;20075;-46
2023/07/13 07:26:41;;;;;;;6.40;2.60;;;;;;;23.83;49.95;101627.91;5028014;28;20099;-49
2023/07/13 07:29:06;;;;;;;10.85;2.70;;;;;;;24.52;48.04;101643.53;5028877;28;20399;-46
2023/07/13 07:31:32;;;;;;;8.32;2.40;;;;;;;24.40;48.50;101645.69;5028760;28;20038;-46
2023/07/13 07:33:57;;;;;;;5.57;2.30;;;;;;;25.51;45.55;101641.94;5028880;28;20030;-43
2023/07/13 07:36:22;;;;;;;9.55;2.60;;;;;;;24.84;47.06;101644.25;5029781;28;20034;-50
2023/07/13 07:38:48;;;;;;;6.90;2.50;;;;;;;24.78;47.64;101648.00;5028325;28;20412;-51
2023/07/13 07:41:13;;;;;;;9.95;2.70;;;;;;;25.11;46.98;101645.16;5033433;28;20175;-45
2023/07/13 07:43:39;;;;;;;7.03;2.72;;;;;;;25.60;45.28;101647.88;5032975;28;20084;-45
2023/07/13 07:46:04;;;;;;;8.95;2.55;;;;;;;25.32;45.54;101655.06;5033490;28;20171;-42
2023/07/13 07:48:30;;;;;;;6.65;2.50;;;;;;;24.56;48.46;101662.97;5034060;28;20128;-47
2023/07/13 07:50:55;;;;;;;8.40;2.72;;;;;;;23.61;50.49;101658.69;5032942;28;20036;-47
2023/07/13 07:53:21;;;;;;;8.23;2.75;;;;;;;23.98;49.61;101659.38;5033710;28;20034;-46
2023/07/13 07:55:47;;;;;;;7.68;3.05;;;;;;;24.41;48.95;101663.44;5033486;28;20107;-44
2023/07/13 07:58:12;;;;;;;12.38;2.60;;;;;;;26.08;44.55;101654.97;5032257;28;20547;-44
2023/07/13 08:00:38;;;;;;;10.00;2.47;;;;;;;27.97;39.49;101659.44;5032309;28;20041;-42
2023/07/13 08:03:04;;;;;;;6.82;2.35;;;;;;;29.24;37.71;101656.75;5030962;28;20057;-46
2023/07/13 08:05:29;;;;;;;8.98;2.40;;;;;;;28.43;39.54;101655.44;5032814;28;20043;-46
2023/07/13 08:07:55;;;;;;;8.48;2.53;;;;;;;26.40;42.36;101659.97;5032648;28;20087;-46
2023/07/13 08:10:20;;;;;;;14.10;2.70;;;;;;;26.08;43.68;101661.19;5032496;28;20117;-53
2023/07/13 08:12:45;;;;;;;9.45;2.45;;;;;;;25.32;45.55;101669.28;5032593;28;20574;-46
2023/07/13 08:15:14;;;;;;;6.38;2.40;;;;;;;24.92;46.98;101666.25;5032787;28;20048;-49
2023/07/13 08:17:39;;;;;;;10.80;2.70;;;;;;;24.12;48.74;101670.53;5032487;28;20485;-47
2023/07/13 08:20:05;;;;;;;7.78;2.67;;;;;;;24.70;47.66;101671.41;5032029;28;20032;-47
2023/07/13 08:22:31;;;;;;;11.23;2.83;;;;;;;24.86;47.06;101669.97;5033430;28;20037;-42
2023/07/13 08:24:56;;;;;;;9.00;2.83;;;;;;;25.71;44.85;101671.50;5031931;28;20500;-51
2023/07/13 08:27:23;;;;;;;7.32;2.60;;;;;;;25.64;44.17;101673.53;5032905;28;20105;-44
2023/07/13 08:29:49;;;;;;;9.10;2.42;;;;;;;26.40;41.45;101672.47;5030298;28;20480;-45
2023/07/13 08:32:15;;;;;;;9.27;2.70;;;;;;;27.05;41.59;101662.63;5032301;28;20116;-47
2023/07/13 08:34:40;;;;;;;6.85;2.40;;;;;;;27.47;41.11;101669.72;5032163;28;20049;-44
2023/07/13 08:37:06;;;;;;;8.80;2.50;;;;;;;27.14;42.36;101665.84;5031887;28;20037;-50
2023/07/13 08:39:32;;;;;;;15.05;3.00;;;;;;;26.62;41.41;101671.53;5030914;28;20038;-47
2023/07/13 08:42:03;;;;;;;7.63;2.58;;;;;;;25.72;44.00;101674.13;5031665;28;20087;-49
2023/07/13 08:44:46;;;;;;;9.23;2.63;;;;;;;25.27;45.09;101676.59;5032690;28;20041;-49
2023/07/13 08:47:13;;;;;;;;;;;;;;;25.07;45.13;101673.72;5032732;28;20049;-49
2023/07/13 08:49:40;;;;;;;5.70;2.50;;;;;;;25.67;44.14;101678.78;5031948;28;19912;-44
2023/07/13 08:52:36;;;;;;;10.35;2.78;;;;;;;25.76;43.50;101667.72;5031816;28;20029;-46
2023/07/13 08:55:25;;;;;;;6.95;2.58;;;;;;;25.80;43.66;101668.47;5032510;28;20600;-41
2023/07/13 08:58:09;;;;;;;9.35;2.60;;;;;;;26.07;42.85;101669.25;5031832;28;20034;-48
2023/07/13 09:00:41;;;;;;;6.05;2.83;;;;;;;25.80;44.79;101665.81;5031243;28;20586;-49
2023/07/13 09:03:20;;;;;;;5.30;2.55;;;;;;;24.86;46.04;101677.97;5032246;28;20034;-49
2023/07/13 09:05:51;;;;;;;8.18;2.80;;;;;;;24.93;47.04;101674.22;5031880;28;20080;-49
2023/07/13 09:08:41;;;;;;;9.18;2.80;;;;;;;24.39;47.07;101675.97;5030570;28;20084;-44
2023/07/13 09:11:19;;;;;;;7.78;2.75;;;;;;;24.06;48.04;101672.50;5031123;28;20030;-46
2023/07/13 09:14:40;;;;;;;7.45;2.85;;;;;;;24.19;47.79;101689.91;5031303;28;20033;-45
2023/07/13 09:17:13;;;;;;;7.20;2.65;;;;;;;25.35;44.78;101679.88;4935874;29;20118;-49
2023/07/13 09:19:40;;;;;;;7.33;2.80;;;;;;;25.17;45.61;101684.97;5001431;28;20048;-46
2023/07/13 09:22:13;;;;;;;8.38;2.58;;;;;;;25.07;45.77;101692.41;5028506;28;20452;-49
2023/07/13 09:25:05;;;;;;;6.03;2.65;;;;;;;25.12;44.55;101694.94;5031315;28;20037;-47
2023/07/13 09:27:45;;;;;;;8.77;2.80;;;;;;;24.97;45.68;101697.19;5031536;28;20038;-47
2023/07/13 09:30:14;;;;;;;6.78;2.80;;;;;;;25.23;44.28;101692.78;5030785;28;20033;-44
2023/07/13 09:32:43;;;;;;;7.63;2.72;;;;;;;25.16;45.53;101696.56;5030586;28;20091;-45
2023/07/13 09:35:15;;;;;;;8.73;2.90;;;;;;;25.36;45.92;101697.66;5030931;28;20033;-48
2023/07/13 09:37:45;;;;;;;8.18;3.20;;;;;;;25.21;46.17;101697.28;5029595;28;20040;-47
2023/07/13 09:40:18;;;;;;;8.93;2.80;;;;;;;25.09;45.42;101687.91;5030839;28;20036;-49
2023/07/13 09:42:44;;;;;;;7.55;3.03;;;;;;;25.13;45.62;101694.88;5030470;28;20056;-43
2023/07/13 09:45:10;;;;;;;4.82;2.83;;;;;;;25.35;45.58;101700.38;5030913;28;20514;-51
2023/07/13 09:47:40;;;;;;;8.40;2.80;;;;;;;25.84;43.49;101695.03;5030774;28;20050;-47
2023/07/13 09:50:18;;;;;;;9.68;3.05;;;;;;;25.66;43.03;101703.72;5030243;28;20029;-48
2023/07/13 09:52:47;;;;;;;8.13;2.92;;;;;;;25.45;44.66;101707.13;5030250;28;20079;-49
2023/07/13 09:55:26;;;;;;;7.78;2.80;;;;;;;25.80;43.75;101717.44;5030880;28;20041;-45
2023/07/13 09:57:52;;;;;;;9.38;2.83;;;;;;;25.17;44.03;101714.34;5030858;28;20040;-50
2023/07/13 10:00:27;;;;;;;5.22;2.60;;;;;;;24.80;45.41;101723.53;5030746;28;20450;-48
2023/07/13 10:03:23;;;;;;;9.75;3.20;;;;;;;24.95;45.21;101724.84;5029827;28;20574;-44
2023/07/13 10:05:50;;;;;;;7.95;2.85;;;;;;;25.16;45.07;101728.59;5029201;28;20095;-44
2023/07/13 10:08:30;;;;;;;9.27;3.10;;;;;;;24.79;46.46;101728.91;5030664;28;20033;-50
2023/07/13 10:11:09;;;;;;;6.78;3.00;;;;;;;25.50;45.15;101722.97;5029640;28;20076;-46
2023/07/13 10:13:37;;;;;;;11.32;3.30;;;;;;;25.40;45.55;101735.78;5030315;28;20038;-48
2023/07/13 10:16:05;;;;;;;8.90;3.08;;;;;;;25.43;44.68;101736.53;5031047;28;20116;-47
2023/07/13 10:18:53;;;;;;;8.18;2.83;;;;;;;26.44;42.54;101736.44;5031043;28;20041;-49
2023/07/13 10:21:21;;;;;;;8.75;2.97;;;;;;;26.34;42.11;101742.22;5030566;28;20037;-50
2023/07/13 10:23:58;;;;;;;7.10;2.72;;;;;;;26.12;43.17;101742.09;5029673;28;20060;-47
2023/07/13 10:26:31;;;;;;;7.78;2.80;;;;;;;25.71;44.72;101748.97;5030509;28;20045;-50
2023/07/13 10:29:01;;;;;;;7.72;3.03;;;;;;;26.06;43.09;101747.66;5029720;28;20121;-48
2023/07/13 10:31:26;;;;;;;6.18;2.83;;;;;;;25.76;43.08;101755.88;5030796;28;20080;-46
2023/07/13 10:33:52;;;;;;;8.50;3.00;;;;;;;25.34;43.10;101752.88;5030342;28;20064;-45
2023/07/13 10:36:40;;;;;;;6.60;2.67;;;;;;;25.18;44.23;101756.13;5030639;28;20026;-45
2023/07/13 10:39:06;;;;;;;6.93;3.05;;;;;;;24.94;44.88;101752.47;5030032;28;20037;-46
2023/07/13 10:41:40;;;;;;;10.20;3.00;;;;;;;25.33;44.00;101759.13;5031108;28;20045;-47
2023/07/13 10:44:13;;;;;;;7.10;2.72;;;;;;;25.30;44.34;101755.72;5030868;28;20566;-45
2023/07/13 10:46:39;;;;;;;7.55;2.38;;;;;;;25.78;44.81;101755.84;5030756;28;20056;-43
2023/07/13 10:49:07;;;;;;;11.55;3.05;;;;;;;26.13;41.62;101757.22;5032635;28;20034;-47
2023/07/13 10:51:34;;;;;;;7.20;2.30;;;;;;;26.81;40.92;101754.59;5033499;28;20033;-46
2023/07/13 10:54:22;;;;;;;9.40;2.80;;;;;;;26.43;40.49;101761.44;5032976;28;20772;-44
2023/07/13 10:56:50;;;;;;;4.90;2.53;;;;;;;26.81;40.62;101767.09;5031613;28;20113;-45
2023/07/13 10:59:26;;;;;;;9.35;2.92;;;;;;;27.03;40.76;101766.19;5029228;28;20114;-45
2023/07/13 11:01:57;;;;;;;9.35;3.40;;;;;;;26.54;41.33;101758.34;5029683;28;20492;-52
2023/07/13 11:04:26;;;;;;;7.55;2.85;;;;;;;26.01;42.95;101774.56;5031453;28;20029;-47
2023/07/13 11:06:58;;;;;;;7.38;3.00;;;;;;;26.39;42.59;101775.84;5031101;28;20068;-45
2023/07/13 11:09:40;;;;;;;10.05;3.03;;;;;;;25.74;44.18;101772.88;5030016;28;20128;-46
2023/07/13 11:12:19;;;;;;;10.80;3.10;;;;;;;25.36;45.12;101776.84;5030051;28;20083;-47
2023/07/13 11:14:54;;;;;;;8.23;2.88;;;;;;;25.18;45.42;101778.34;5031327;28;20041;-47
2023/07/13 11:17:38;;;;;;;10.57;3.33;;;;;;;25.43;45.68;101773.91;5031653;28;20037;-45
2023/07/13 11:20:12;;;;;;;9.52;3.20;;;;;;;24.86;46.80;101784.66;5029924;28;20087;-46
2023/07/13 11:22:44;;;;;;;7.75;3.00;;;;;;;24.71;46.31;101781.59;5029305;28;20045;-47
2023/07/13 11:25:37;;;;;;;10.45;3.47;;;;;;;24.83;44.33;101781.22;5030294;28;20053;-50
2023/07/13 11:28:11;;;;;;;9.32;2.88;;;;;;;24.25;44.93;101777.66;5021802;28;20064;-47